sensor_id;sensor_type;location;lat;lon;timestamp;P1;durP1;ratioP1;P2;durP2;ratioP2
31978;SDS011;18502;43.574;1.276;2023-04-01T00:00:18;32.30;;;6.18;;
31978;SDS011;18502;43.574;1.276;2023-04-01T00:02:44;26.08;;;4.22;;
31978;SDS011;18502;43.574;1.276;2023-04-01T00:05:10;23.10;;;5.30;;
31978;SDS011;18502;43.574;1.276;2023-04-01T00:07:37;29.80;;;6.65;;
31978;SDS011;18502;43.574;1.276;2023-04-01T00:10:05;31.38;;;5.85;;
31978;SDS011;18502;43.574;1.276;2023-04-01T00:12:32;23.48;;;3.83;;
31978;SDS011;18502;43.574;1.276;2023-04-01T00:14:58;28.42;;;4.90;;
31978;SDS011;18502;43.574;1.276;2023-04-01T00:17:24;27.77;;;4.80;;
31978;SDS011;18502;43.574;1.276;2023-04-01T00:19:50;31.13;;;4.85;;
31978;SDS011;18502;43.574;1.276;2023-04-01T00:22:15;29.52;;;4.70;;
31978;SDS011;18502;43.574;1.276;2023-04-01T00:24:41;36.53;;;5.32;;
31978;SDS011;18502;43.574;1.276;2023-04-01T00:27:07;34.78;;;5.18;;
31978;SDS011;18502;43.574;1.276;2023-04-01T00:29:33;30.13;;;5.30;;
31978;SDS011;18502;43.574;1.276;2023-04-01T00:31:59;27.02;;;4.20;;
31978;SDS011;18502;43.574;1.276;2023-04-01T00:34:25;25.50;;;5.85;;
31978;SDS011;18502;43.574;1.276;2023-04-01T00:36:51;21.55;;;5.07;;
31978;SDS011;18502;43.574;1.276;2023-04-01T00:39:18;26.05;;;5.45;;
31978;SDS011;18502;43.574;1.276;2023-04-01T00:41:44;27.40;;;5.32;;
31978;SDS011;18502;43.574;1.276;2023-04-01T00:47:10;30.55;;;4.80;;
31978;SDS011;18502;43.574;1.276;2023-04-01T00:49:37;32.83;;;4.25;;
31978;SDS011;18502;43.574;1.276;2023-04-01T00:52:05;36.70;;;6.57;;
31978;SDS011;18502;43.574;1.276;2023-04-01T00:54:33;32.70;;;4.50;;
31978;SDS011;18502;43.574;1.276;2023-04-01T00:57:05;30.92;;;7.97;;
31978;SDS011;18502;43.574;1.276;2023-04-01T00:59:38;23.65;;;5.40;;
31978;SDS011;18502;43.574;1.276;2023-04-01T01:02:10;37.65;;;7.45;;
31978;SDS011;18502;43.574;1.276;2023-04-01T01:04:37;33.20;;;5.25;;
31978;SDS011;18502;43.574;1.276;2023-04-01T01:12:45;33.45;;;4.72;;
31978;SDS011;18502;43.574;1.276;2023-04-01T01:15:37;33.17;;;5.38;;
31978;SDS011;18502;43.574;1.276;2023-04-01T01:32:38;27.98;;;4.88;;
31978;SDS011;18502;43.574;1.276;2023-04-01T01:35:20;30.98;;;4.53;;
31978;SDS011;18502;43.574;1.276;2023-04-01T01:37:47;35.45;;;5.15;;
31978;SDS011;18502;43.574;1.276;2023-04-01T01:40:19;33.40;;;5.82;;
31978;SDS011;18502;43.574;1.276;2023-04-01T01:42:47;29.23;;;5.13;;
31978;SDS011;18502;43.574;1.276;2023-04-01T01:45:16;37.30;;;5.45;;
31978;SDS011;18502;43.574;1.276;2023-04-01T01:47:45;30.37;;;4.23;;
31978;SDS011;18502;43.574;1.276;2023-04-01T01:50:12;31.05;;;4.85;;
31978;SDS011;18502;43.574;1.276;2023-04-01T01:52:39;33.35;;;4.65;;
31978;SDS011;18502;43.574;1.276;2023-04-01T01:57:54;39.47;;;5.68;;
31978;SDS011;18502;43.574;1.276;2023-04-01T02:00:24;27.85;;;4.72;;
31978;SDS011;18502;43.574;1.276;2023-04-01T02:02:50;29.58;;;6.22;;
31978;SDS011;18502;43.574;1.276;2023-04-01T02:05:17;30.33;;;5.35;;
31978;SDS011;18502;43.574;1.276;2023-04-01T02:08:02;31.83;;;5.18;;
31978;SDS011;18502;43.574;1.276;2023-04-01T02:11:22;36.88;;;6.10;;
31978;SDS011;18502;43.574;1.276;2023-04-01T02:16:19;27.27;;;4.47;;
31978;SDS011;18502;43.574;1.276;2023-04-01T02:18:49;33.17;;;5.47;;
31978;SDS011;18502;43.574;1.276;2023-04-01T02:21:19;33.55;;;6.30;;
31978;SDS011;18502;43.574;1.276;2023-04-01T02:23:47;36.45;;;5.40;;
31978;SDS011;18502;43.574;1.276;2023-04-01T02:26:14;31.90;;;5.40;;
31978;SDS011;18502;43.574;1.276;2023-04-01T02:28:41;33.00;;;5.95;;
31978;SDS011;18502;43.574;1.276;2023-04-01T02:31:09;28.02;;;5.10;;
31978;SDS011;18502;43.574;1.276;2023-04-01T02:33:36;29.02;;;4.55;;
31978;SDS011;18502;43.574;1.276;2023-04-01T02:36:04;25.05;;;4.10;;
31978;SDS011;18502;43.574;1.276;2023-04-01T02:38:30;38.13;;;4.75;;
31978;SDS011;18502;43.574;1.276;2023-04-01T02:40:57;18.75;;;3.78;;
31978;SDS011;18502;43.574;1.276;2023-04-01T02:43:25;35.55;;;5.40;;
31978;SDS011;18502;43.574;1.276;2023-04-01T02:45:51;32.45;;;4.72;;
31978;SDS011;18502;43.574;1.276;2023-04-01T02:48:17;26.00;;;5.25;;
31978;SDS011;18502;43.574;1.276;2023-04-01T02:50:42;20.67;;;3.38;;
31978;SDS011;18502;43.574;1.276;2023-04-01T02:53:08;27.83;;;5.13;;
31978;SDS011;18502;43.574;1.276;2023-04-01T02:55:34;28.60;;;5.78;;
31978;SDS011;18502;43.574;1.276;2023-04-01T02:58:00;27.13;;;5.28;;
31978;SDS011;18502;43.574;1.276;2023-04-01T03:00:26;31.40;;;6.05;;
31978;SDS011;18502;43.574;1.276;2023-04-01T03:02:52;38.67;;;6.07;;
31978;SDS011;18502;43.574;1.276;2023-04-01T03:05:18;34.63;;;6.07;;
31978;SDS011;18502;43.574;1.276;2023-04-01T03:07:44;29.02;;;5.15;;
31978;SDS011;18502;43.574;1.276;2023-04-01T03:10:10;34.78;;;6.57;;
31978;SDS011;18502;43.574;1.276;2023-04-01T03:12:36;27.48;;;4.95;;
31978;SDS011;18502;43.574;1.276;2023-04-01T03:15:01;34.00;;;5.00;;
31978;SDS011;18502;43.574;1.276;2023-04-01T03:17:27;35.17;;;4.60;;
31978;SDS011;18502;43.574;1.276;2023-04-01T03:19:53;36.95;;;6.68;;
31978;SDS011;18502;43.574;1.276;2023-04-01T03:22:19;34.25;;;5.53;;
31978;SDS011;18502;43.574;1.276;2023-04-01T03:24:46;29.83;;;5.00;;
31978;SDS011;18502;43.574;1.276;2023-04-01T03:27:12;41.75;;;7.13;;
31978;SDS011;18502;43.574;1.276;2023-04-01T03:29:38;31.17;;;5.40;;
31978;SDS011;18502;43.574;1.276;2023-04-01T03:32:03;32.75;;;4.80;;
31978;SDS011;18502;43.574;1.276;2023-04-01T03:34:30;25.05;;;5.20;;
31978;SDS011;18502;43.574;1.276;2023-04-01T03:36:56;29.67;;;5.45;;
31978;SDS011;18502;43.574;1.276;2023-04-01T03:39:22;33.30;;;4.53;;
31978;SDS011;18502;43.574;1.276;2023-04-01T03:41:48;26.85;;;3.72;;
31978;SDS011;18502;43.574;1.276;2023-04-01T03:44:14;45.58;;;5.90;;
31978;SDS011;18502;43.574;1.276;2023-04-01T03:46:40;39.67;;;5.68;;
31978;SDS011;18502;43.574;1.276;2023-04-01T03:49:06;35.45;;;4.80;;
31978;SDS011;18502;43.574;1.276;2023-04-01T03:51:39;32.40;;;5.45;;
31978;SDS011;18502;43.574;1.276;2023-04-01T03:54:06;29.85;;;5.93;;
31978;SDS011;18502;43.574;1.276;2023-04-01T03:56:32;29.10;;;5.75;;
31978;SDS011;18502;43.574;1.276;2023-04-01T03:58:58;35.50;;;6.43;;
31978;SDS011;18502;43.574;1.276;2023-04-01T04:01:26;41.47;;;5.50;;
31978;SDS011;18502;43.574;1.276;2023-04-01T04:03:52;26.10;;;4.93;;
31978;SDS011;18502;43.574;1.276;2023-04-01T04:06:18;33.97;;;5.07;;
31978;SDS011;18502;43.574;1.276;2023-04-01T04:08:44;32.10;;;4.40;;
31978;SDS011;18502;43.574;1.276;2023-04-01T04:11:10;34.90;;;5.65;;
31978;SDS011;18502;43.574;1.276;2023-04-01T04:13:36;22.95;;;3.92;;
31978;SDS011;18502;43.574;1.276;2023-04-01T04:16:02;33.00;;;5.85;;
31978;SDS011;18502;43.574;1.276;2023-04-01T04:18:28;23.42;;;3.78;;
31978;SDS011;18502;43.574;1.276;2023-04-01T04:20:54;37.22;;;5.43;;
31978;SDS011;18502;43.574;1.276;2023-04-01T04:23:20;30.17;;;4.90;;
31978;SDS011;18502;43.574;1.276;2023-04-01T04:26:03;21.83;;;4.13;;
31978;SDS011;18502;43.574;1.276;2023-04-01T04:28:30;40.97;;;5.13;;
31978;SDS011;18502;43.574;1.276;2023-04-01T04:30:56;29.83;;;5.15;;
31978;SDS011;18502;43.574;1.276;2023-04-01T04:33:22;36.70;;;6.43;;
31978;SDS011;18502;43.574;1.276;2023-04-01T04:35:49;23.67;;;4.95;;
31978;SDS011;18502;43.574;1.276;2023-04-01T04:38:15;26.83;;;4.53;;
31978;SDS011;18502;43.574;1.276;2023-04-01T04:40:41;28.95;;;3.92;;
31978;SDS011;18502;43.574;1.276;2023-04-01T04:43:09;27.67;;;4.85;;
31978;SDS011;18502;43.574;1.276;2023-04-01T04:45:35;29.70;;;4.80;;
31978;SDS011;18502;43.574;1.276;2023-04-01T04:48:01;40.33;;;5.50;;
31978;SDS011;18502;43.574;1.276;2023-04-01T04:50:27;22.98;;;4.40;;
31978;SDS011;18502;43.574;1.276;2023-04-01T04:52:52;24.65;;;4.78;;
31978;SDS011;18502;43.574;1.276;2023-04-01T04:55:18;41.25;;;7.00;;
31978;SDS011;18502;43.574;1.276;2023-04-01T04:57:44;34.22;;;5.30;;
31978;SDS011;18502;43.574;1.276;2023-04-01T05:00:10;27.48;;;5.03;;
31978;SDS011;18502;43.574;1.276;2023-04-01T05:02:36;38.83;;;6.78;;
31978;SDS011;18502;43.574;1.276;2023-04-01T05:05:02;31.05;;;5.22;;
31978;SDS011;18502;43.574;1.276;2023-04-01T05:07:27;40.25;;;5.30;;
31978;SDS011;18502;43.574;1.276;2023-04-01T05:09:53;36.30;;;4.60;;
31978;SDS011;18502;43.574;1.276;2023-04-01T05:12:19;24.73;;;5.45;;
31978;SDS011;18502;43.574;1.276;2023-04-01T05:14:45;28.45;;;4.25;;
31978;SDS011;18502;43.574;1.276;2023-04-01T05:17:11;25.52;;;4.30;;
31978;SDS011;18502;43.574;1.276;2023-04-01T05:19:37;28.95;;;5.03;;
31978;SDS011;18502;43.574;1.276;2023-04-01T05:22:03;28.60;;;4.43;;
31978;SDS011;18502;43.574;1.276;2023-04-01T05:24:29;20.17;;;3.80;;
31978;SDS011;18502;43.574;1.276;2023-04-01T05:26:55;38.15;;;5.85;;
31978;SDS011;18502;43.574;1.276;2023-04-01T05:29:22;26.75;;;5.75;;
31978;SDS011;18502;43.574;1.276;2023-04-01T05:31:51;36.28;;;5.00;;
31978;SDS011;18502;43.574;1.276;2023-04-01T05:34:17;32.72;;;4.10;;
31978;SDS011;18502;43.574;1.276;2023-04-01T05:36:43;29.65;;;4.22;;
31978;SDS011;18502;43.574;1.276;2023-04-01T05:39:09;21.05;;;4.22;;
31978;SDS011;18502;43.574;1.276;2023-04-01T05:41:35;30.70;;;5.85;;
31978;SDS011;18502;43.574;1.276;2023-04-01T05:44:01;31.48;;;4.35;;
31978;SDS011;18502;43.574;1.276;2023-04-01T05:46:27;34.28;;;5.18;;
31978;SDS011;18502;43.574;1.276;2023-04-01T05:48:53;29.27;;;4.10;;
31978;SDS011;18502;43.574;1.276;2023-04-01T05:51:19;30.02;;;4.47;;
31978;SDS011;18502;43.574;1.276;2023-04-01T05:53:44;31.63;;;5.78;;
31978;SDS011;18502;43.574;1.276;2023-04-01T05:56:10;23.98;;;5.65;;
31978;SDS011;18502;43.574;1.276;2023-04-01T05:58:36;25.70;;;4.25;;
31978;SDS011;18502;43.574;1.276;2023-04-01T06:01:03;21.50;;;3.22;;
31978;SDS011;18502;43.574;1.276;2023-04-01T06:03:30;25.38;;;3.97;;
31978;SDS011;18502;43.574;1.276;2023-04-01T06:05:56;29.90;;;5.47;;
31978;SDS011;18502;43.574;1.276;2023-04-01T06:08:21;26.50;;;4.28;;
31978;SDS011;18502;43.574;1.276;2023-04-01T06:30:59;31.80;;;4.68;;
31978;SDS011;18502;43.574;1.276;2023-04-01T06:39:21;34.10;;;4.35;;
31978;SDS011;18502;43.574;1.276;2023-04-01T06:47:19;32.17;;;5.18;;
31978;SDS011;18502;43.574;1.276;2023-04-01T06:55:43;30.55;;;4.05;;
31978;SDS011;18502;43.574;1.276;2023-04-01T06:58:21;27.73;;;4.43;;
31978;SDS011;18502;43.574;1.276;2023-04-01T07:01:00;27.00;;;5.20;;
31978;SDS011;18502;43.574;1.276;2023-04-01T07:06:09;22.15;;;3.95;;
31978;SDS011;18502;43.574;1.276;2023-04-01T07:08:40;31.60;;;4.68;;
31978;SDS011;18502;43.574;1.276;2023-04-01T07:11:11;25.52;;;4.38;;
31978;SDS011;18502;43.574;1.276;2023-04-01T07:13:49;31.13;;;5.50;;
31978;SDS011;18502;43.574;1.276;2023-04-01T07:16:26;36.30;;;5.72;;
31978;SDS011;18502;43.574;1.276;2023-04-01T07:19:16;24.00;;;3.60;;
31978;SDS011;18502;43.574;1.276;2023-04-01T07:24:25;28.45;;;4.35;;
31978;SDS011;18502;43.574;1.276;2023-04-01T07:26:55;40.90;;;6.00;;
31978;SDS011;18502;43.574;1.276;2023-04-01T07:29:22;22.55;;;3.17;;
31978;SDS011;18502;43.574;1.276;2023-04-01T07:37:17;28.05;;;4.40;;
31978;SDS011;18502;43.574;1.276;2023-04-01T07:40:07;29.15;;;5.05;;
31978;SDS011;18502;43.574;1.276;2023-04-01T07:58:24;28.77;;;5.03;;
31978;SDS011;18502;43.574;1.276;2023-04-01T08:09:17;21.33;;;5.13;;
31978;SDS011;18502;43.574;1.276;2023-04-01T08:14:54;22.30;;;4.65;;
31978;SDS011;18502;43.574;1.276;2023-04-01T08:17:44;29.90;;;5.07;;
31978;SDS011;18502;43.574;1.276;2023-04-01T08:20:44;26.98;;;4.28;;
31978;SDS011;18502;43.574;1.276;2023-04-01T08:23:22;22.52;;;5.00;;
31978;SDS011;18502;43.574;1.276;2023-04-01T08:26:05;20.50;;;3.90;;
31978;SDS011;18502;43.574;1.276;2023-04-01T08:28:43;24.35;;;4.00;;
31978;SDS011;18502;43.574;1.276;2023-04-01T08:31:18;29.75;;;5.32;;
31978;SDS011;18502;43.574;1.276;2023-04-01T08:33:54;20.17;;;4.05;;
31978;SDS011;18502;43.574;1.276;2023-04-01T08:36:37;19.90;;;3.45;;
31978;SDS011;18502;43.574;1.276;2023-04-01T08:39:07;19.90;;;3.70;;
31978;SDS011;18502;43.574;1.276;2023-04-01T08:50:00;18.52;;;4.78;;
31978;SDS011;18502;43.574;1.276;2023-04-01T08:55:30;14.13;;;2.42;;
31978;SDS011;18502;43.574;1.276;2023-04-01T09:01:17;16.38;;;3.03;;
31978;SDS011;18502;43.574;1.276;2023-04-01T09:06:49;10.13;;;1.90;;
31978;SDS011;18502;43.574;1.276;2023-04-01T09:12:29;9.40;;;1.98;;
31978;SDS011;18502;43.574;1.276;2023-04-01T09:26:37;9.23;;;1.52;;
31978;SDS011;18502;43.574;1.276;2023-04-01T09:29:26;8.50;;;2.10;;
31978;SDS011;18502;43.574;1.276;2023-04-01T09:41:22;9.25;;;1.83;;
31978;SDS011;18502;43.574;1.276;2023-04-01T09:44:05;8.02;;;2.35;;
31978;SDS011;18502;43.574;1.276;2023-04-01T10:06:45;11.43;;;2.92;;
31978;SDS011;18502;43.574;1.276;2023-04-01T10:12:43;10.10;;;2.58;;
31978;SDS011;18502;43.574;1.276;2023-04-01T10:15:46;11.48;;;1.88;;
31978;SDS011;18502;43.574;1.276;2023-04-01T11:05:53;8.30;;;2.22;;
31978;SDS011;18502;43.574;1.276;2023-04-01T11:16:35;7.05;;;1.55;;
31978;SDS011;18502;43.574;1.276;2023-04-01T11:44:15;8.70;;;1.33;;
31978;SDS011;18502;43.574;1.276;2023-04-01T11:55:02;6.22;;;2.45;;
31978;SDS011;18502;43.574;1.276;2023-04-01T12:03:21;5.45;;;1.23;;
31978;SDS011;18502;43.574;1.276;2023-04-01T12:06:02;4.72;;;1.58;;
31978;SDS011;18502;43.574;1.276;2023-04-01T12:09:02;3.25;;;1.05;;
31978;SDS011;18502;43.574;1.276;2023-04-01T12:14:15;9.27;;;1.77;;
31978;SDS011;18502;43.574;1.276;2023-04-01T12:20:21;5.43;;;1.60;;
31978;SDS011;18502;43.574;1.276;2023-04-01T12:31:41;4.13;;;0.70;;
31978;SDS011;18502;43.574;1.276;2023-04-01T13:07:22;10.15;;;1.10;;
31978;SDS011;18502;43.574;1.276;2023-04-01T13:13:37;5.97;;;1.60;;
31978;SDS011;18502;43.574;1.276;2023-04-01T13:16:16;12.07;;;1.75;;
31978;SDS011;18502;43.574;1.276;2023-04-01T13:27:29;8.80;;;1.83;;
31978;SDS011;18502;43.574;1.276;2023-04-01T13:43:40;8.00;;;1.27;;
31978;SDS011;18502;43.574;1.276;2023-04-01T13:46:27;13.02;;;1.60;;
31978;SDS011;18502;43.574;1.276;2023-04-01T13:52:08;9.57;;;1.27;;
31978;SDS011;18502;43.574;1.276;2023-04-01T14:05:40;10.60;;;1.52;;
31978;SDS011;18502;43.574;1.276;2023-04-01T14:08:14;7.88;;;1.45;;
31978;SDS011;18502;43.574;1.276;2023-04-01T14:24:40;10.68;;;1.80;;
31978;SDS011;18502;43.574;1.276;2023-04-01T14:30:02;6.50;;;0.82;;
31978;SDS011;18502;43.574;1.276;2023-04-01T14:32:48;5.88;;;1.52;;
31978;SDS011;18502;43.574;1.276;2023-04-01T14:45:02;11.50;;;1.40;;
31978;SDS011;18502;43.574;1.276;2023-04-01T14:50:30;12.07;;;2.10;;
31978;SDS011;18502;43.574;1.276;2023-04-01T14:53:44;17.95;;;2.58;;
31978;SDS011;18502;43.574;1.276;2023-04-01T14:56:04;5.93;;;1.75;;
31978;SDS011;18502;43.574;1.276;2023-04-01T15:21:04;6.40;;;1.20;;
31978;SDS011;18502;43.574;1.276;2023-04-01T15:23:54;6.78;;;1.15;;
31978;SDS011;18502;43.574;1.276;2023-04-01T15:34:53;5.57;;;0.93;;
31978;SDS011;18502;43.574;1.276;2023-04-01T15:40:26;9.15;;;1.13;;
31978;SDS011;18502;43.574;1.276;2023-04-01T16:00:30;6.78;;;1.40;;
31978;SDS011;18502;43.574;1.276;2023-04-01T16:30:46;6.78;;;1.27;;
31978;SDS011;18502;43.574;1.276;2023-04-01T16:33:44;7.70;;;1.08;;
31978;SDS011;18502;43.574;1.276;2023-04-01T16:41:46;4.20;;;1.20;;
31978;SDS011;18502;43.574;1.276;2023-04-01T16:44:22;2.85;;;1.00;;
31978;SDS011;18502;43.574;1.276;2023-04-01T16:49:25;3.72;;;0.65;;
31978;SDS011;18502;43.574;1.276;2023-04-01T16:59:44;6.07;;;1.00;;
31978;SDS011;18502;43.574;1.276;2023-04-01T17:02:22;9.00;;;1.15;;
31978;SDS011;18502;43.574;1.276;2023-04-01T17:04:58;3.80;;;1.02;;
31978;SDS011;18502;43.574;1.276;2023-04-01T17:07:43;7.15;;;1.65;;
31978;SDS011;18502;43.574;1.276;2023-04-01T17:16:38;6.90;;;1.25;;
31978;SDS011;18502;43.574;1.276;2023-04-01T17:28:50;5.03;;;1.25;;
31978;SDS011;18502;43.574;1.276;2023-04-01T17:31:39;5.70;;;1.60;;
31978;SDS011;18502;43.574;1.276;2023-04-01T17:34:27;8.32;;;2.33;;
31978;SDS011;18502;43.574;1.276;2023-04-01T17:43:16;1.42;;;0.60;;
31978;SDS011;18502;43.574;1.276;2023-04-01T17:46:01;3.95;;;0.88;;
31978;SDS011;18502;43.574;1.276;2023-04-01T17:52:29;5.55;;;1.02;;
31978;SDS011;18502;43.574;1.276;2023-04-01T17:54:49;3.90;;;0.80;;
31978;SDS011;18502;43.574;1.276;2023-04-01T17:57:43;4.70;;;0.95;;
31978;SDS011;18502;43.574;1.276;2023-04-01T18:11:31;10.63;;;1.88;;
31978;SDS011;18502;43.574;1.276;2023-04-01T18:22:33;9.60;;;1.80;;
31978;SDS011;18502;43.574;1.276;2023-04-01T18:25:14;6.13;;;1.65;;
31978;SDS011;18502;43.574;1.276;2023-04-01T18:27:52;6.10;;;1.83;;
31978;SDS011;18502;43.574;1.276;2023-04-01T18:30:31;11.23;;;2.10;;
31978;SDS011;18502;43.574;1.276;2023-04-01T18:38:50;7.15;;;1.30;;
31978;SDS011;18502;43.574;1.276;2023-04-01T18:41:26;8.00;;;1.00;;
31978;SDS011;18502;43.574;1.276;2023-04-01T18:44:22;7.88;;;1.92;;
31978;SDS011;18502;43.574;1.276;2023-04-01T19:00:14;8.10;;;1.40;;
31978;SDS011;18502;43.574;1.276;2023-04-01T19:02:50;10.18;;;2.42;;
31978;SDS011;18502;43.574;1.276;2023-04-01T19:05:42;9.60;;;1.77;;
31978;SDS011;18502;43.574;1.276;2023-04-01T19:08:25;13.50;;;2.03;;
31978;SDS011;18502;43.574;1.276;2023-04-01T19:21:39;15.85;;;2.28;;
31978;SDS011;18502;43.574;1.276;2023-04-01T19:26:46;8.75;;;1.63;;
31978;SDS011;18502;43.574;1.276;2023-04-01T19:29:48;12.70;;;2.22;;
31978;SDS011;18502;43.574;1.276;2023-04-01T19:43:10;6.75;;;1.95;;
31978;SDS011;18502;43.574;1.276;2023-04-01T19:45:51;6.72;;;1.33;;
31978;SDS011;18502;43.574;1.276;2023-04-01T19:48:41;10.75;;;2.20;;
31978;SDS011;18502;43.574;1.276;2023-04-01T19:54:34;4.32;;;1.13;;
31978;SDS011;18502;43.574;1.276;2023-04-01T20:04:53;10.45;;;2.90;;
31978;SDS011;18502;43.574;1.276;2023-04-01T20:07:35;8.30;;;1.65;;
31978;SDS011;18502;43.574;1.276;2023-04-01T20:10:12;4.88;;;1.42;;
31978;SDS011;18502;43.574;1.276;2023-04-01T20:15:41;7.20;;;1.70;;
31978;SDS011;18502;43.574;1.276;2023-04-01T20:18:15;12.70;;;3.33;;
31978;SDS011;18502;43.574;1.276;2023-04-01T20:21:02;14.52;;;1.88;;
31978;SDS011;18502;43.574;1.276;2023-04-01T20:23:50;9.88;;;1.67;;
31978;SDS011;18502;43.574;1.276;2023-04-01T20:26:22;8.50;;;1.42;;
31978;SDS011;18502;43.574;1.276;2023-04-01T20:31:36;12.52;;;1.65;;
31978;SDS011;18502;43.574;1.276;2023-04-01T20:39:40;9.95;;;1.52;;
31978;SDS011;18502;43.574;1.276;2023-04-01T20:48:18;11.95;;;1.73;;
31978;SDS011;18502;43.574;1.276;2023-04-01T21:24:29;13.93;;;2.45;;
31978;SDS011;18502;43.574;1.276;2023-04-01T21:29:56;10.80;;;2.33;;
31978;SDS011;18502;43.574;1.276;2023-04-01T21:38:04;13.50;;;2.63;;
31978;SDS011;18502;43.574;1.276;2023-04-01T21:40:54;11.07;;;2.15;;
31978;SDS011;18502;43.574;1.276;2023-04-01T22:00:38;13.25;;;2.05;;
31978;SDS011;18502;43.574;1.276;2023-04-01T22:03:22;12.88;;;1.80;;
31978;SDS011;18502;43.574;1.276;2023-04-01T22:06:23;11.95;;;2.17;;
31978;SDS011;18502;43.574;1.276;2023-04-01T22:11:45;9.50;;;2.45;;
31978;SDS011;18502;43.574;1.276;2023-04-01T22:17:19;13.32;;;2.22;;
31978;SDS011;18502;43.574;1.276;2023-04-01T22:28:03;9.55;;;1.63;;
31978;SDS011;18502;43.574;1.276;2023-04-01T22:30:34;12.48;;;1.80;;
31978;SDS011;18502;43.574;1.276;2023-04-01T22:43:51;15.40;;;2.30;;
31978;SDS011;18502;43.574;1.276;2023-04-01T22:46:26;15.07;;;1.88;;
31978;SDS011;18502;43.574;1.276;2023-04-01T22:51:54;14.95;;;2.17;;
31978;SDS011;18502;43.574;1.276;2023-04-01T22:54:29;21.58;;;3.42;;
31978;SDS011;18502;43.574;1.276;2023-04-01T23:00:07;14.63;;;2.40;;
31978;SDS011;18502;43.574;1.276;2023-04-01T23:03:19;20.10;;;2.30;;
31978;SDS011;18502;43.574;1.276;2023-04-01T23:05:36;14.32;;;3.35;;
31978;SDS011;18502;43.574;1.276;2023-04-01T23:16:31;15.32;;;2.05;;
31978;SDS011;18502;43.574;1.276;2023-04-01T23:19:23;14.75;;;2.25;;
31978;SDS011;18502;43.574;1.276;2023-04-01T23:27:36;10.70;;;1.88;;
31978;SDS011;18502;43.574;1.276;2023-04-01T23:38:29;10.75;;;1.50;;
31978;SDS011;18502;43.574;1.276;2023-04-01T23:40:57;11.45;;;1.70;;
31978;SDS011;18502;43.574;1.276;2023-04-01T23:44:23;12.90;;;1.65;;
31978;SDS011;18502;43.574;1.276;2023-04-01T23:46:23;6.32;;;1.60;;
31978;SDS011;18502;43.574;1.276;2023-04-01T23:48:50;13.80;;;1.85;;
31978;SDS011;18502;43.574;1.276;2023-04-01T23:51:25;14.80;;;1.52;;
31978;SDS011;18502;43.574;1.276;2023-04-01T23:53:58;8.05;;;1.65;;
31978;SDS011;18502;43.574;1.276;2023-04-01T23:56:38;17.67;;;2.00;;
31978;SDS011;18502;43.574;1.276;2023-04-01T23:59:11;9.52;;;1.90;;
